Time;durP1;ratioP1;P1;durP2;ratioP2;P2;SDS_P1;SDS_P2;PMS_P1;PMS_P2;Temp;Humidity;BMP_temperature;BMP_pressure;BME280_temperature;BME280_humidity;BME280_pressure;Samples;Min_cycle;Max_cycle;Signal;HPM_P1;HPM_P2
2022/05/22 00:00:47;;;;;;;4.55;1.70;;;;;;;13.76;51.88;97032.85;1755253;81;25697;-77
2022/05/22 00:03:14;;;;;;;4.42;2.15;;;;;;;13.76;51.91;97027.42;1755383;81;25693;-76
2022/05/22 00:05:40;;;;;;;7.37;2.15;;;;;;;13.78;51.91;97030.69;1755435;81;25813;-76
2022/05/22 00:08:07;;;;;;;4.47;1.98;;;;;;;13.79;51.90;97030.98;1755467;81;25822;-76
2022/05/22 00:10:34;;;;;;;5.58;2.05;;;;;;;13.79;52.00;97025.56;1755367;81;28019;-76
2022/05/22 00:13:01;;;;;;;5.12;1.90;;;;;;;13.80;52.00;97033.17;1755521;81;26350;-76
2022/05/22 00:15:28;;;;;;;5.45;1.87;;;;;;;13.79;52.09;97025.56;1755395;81;25757;-76
2022/05/22 00:17:55;;;;;;;4.17;1.92;;;;;;;13.73;52.21;97021.12;1754948;81;26781;-76
2022/05/22 00:20:21;;;;;;;4.72;1.90;;;;;;;13.72;52.26;97023.53;1755351;81;25777;-77
2022/05/22 00:22:48;;;;;;;4.05;1.80;;;;;;;13.74;52.50;97017.34;1755325;81;27366;-75
2022/05/22 00:25:18;;;;;;;3.80;1.85;;;;;;;13.71;52.46;97021.88;1755440;81;25235;-77
2022/05/22 00:27:43;;;;;;;4.90;1.80;;;;;;;13.73;52.46;97021.64;1755155;81;25204;-76
2022/05/22 00:30:13;;;;;;;7.12;2.40;;;;;;;13.70;52.48;97017.52;1755387;81;25746;-77
2022/05/22 00:32:40;;;;;;;6.65;2.08;;;;;;;13.72;52.45;97009.97;1755291;81;25271;-77
2022/05/22 00:35:07;;;;;;;3.60;2.30;;;;;;;13.74;52.60;97018.70;1755148;80;27466;-77
2022/05/22 00:37:34;;;;;;;4.50;2.00;;;;;;;13.75;52.80;97015.45;1755024;81;25717;-76
2022/05/22 00:40:00;;;;;;;4.78;2.35;;;;;;;13.70;52.81;97015.63;1755326;81;25757;-78
2022/05/22 00:42:28;;;;;;;4.15;1.80;;;;;;;13.69;52.96;97019.94;1755000;81;25789;-76
2022/05/22 00:44:55;;;;;;;5.85;2.08;;;;;;;13.70;52.91;97014.81;1755470;81;26330;-76
2022/05/22 00:47:22;;;;;;;3.85;2.00;;;;;;;13.70;52.91;97014.28;1755301;81;27499;-76
2022/05/22 00:49:51;;;;;;;4.15;2.15;;;;;;;13.63;52.96;97010.89;1755292;81;25699;-77
2022/05/22 00:52:23;;;;;;;5.12;2.10;;;;;;;13.57;53.21;97022.69;1755244;80;25758;-77
2022/05/22 00:54:57;;;;;;;3.12;1.95;;;;;;;13.52;53.32;97019.06;1755514;81;32469;-77
2022/05/22 00:57:41;;;;;;;3.25;1.90;;;;;;;13.47;53.65;97019.77;1755353;81;25674;-77
2022/05/22 01:00:13;;;;;;;4.67;1.85;;;;;;;13.43;53.72;97021.82;1662369;86;27548;-75
2022/05/22 01:05:25;;;;;;;5.97;1.90;;;;;;;13.51;53.70;97018.77;1607851;89;25833;-76
2022/05/22 01:07:51;;;;;;;5.08;2.33;;;;;;;13.54;53.85;97019.61;1607904;89;25864;-76
2022/05/22 01:10:20;;;;;;;6.70;2.02;;;;;;;13.52;53.96;97020.41;1607995;89;25828;-77
2022/05/22 01:12:49;;;;;;;2.60;2.00;;;;;;;13.47;53.99;97017.58;1607882;89;27402;-76
2022/05/22 01:15:16;;;;;;;3.45;2.10;;;;;;;13.46;54.10;97016.75;1608007;89;25841;-77
2022/05/22 01:17:48;;;;;;;5.42;2.12;;;;;;;13.47;54.11;97012.98;1607888;89;25780;-76
2022/05/22 01:20:15;;;;;;;3.77;1.70;;;;;;;13.48;54.10;97015.16;1608138;89;26462;-76
2022/05/22 01:22:42;;;;;;;7.42;2.15;;;;;;;13.51;54.15;97011.98;1607859;89;26163;-76
2022/05/22 01:25:10;;;;;;;4.55;1.92;;;;;;;13.52;54.32;97016.34;1607845;89;28181;-76
2022/05/22 01:27:39;;;;;;;7.55;2.25;;;;;;;13.48;54.36;97013.81;1607868;89;25942;-76
2022/05/22 01:30:11;;;;;;;5.30;2.08;;;;;;;13.45;54.42;97009.68;1607768;89;26938;-76
2022/05/22 01:32:41;;;;;;;11.53;1.98;;;;;;;13.42;54.60;97005.26;1608041;89;26350;-76
2022/05/22 01:35:11;;;;;;;3.58;2.10;;;;;;;13.36;54.72;97003.52;1608883;89;25740;-76
2022/05/22 01:37:37;;;;;;;4.53;2.27;;;;;;;13.34;54.97;97007.29;1639024;85;28138;-76
2022/05/22 01:40:07;;;;;;;2.58;1.75;;;;;;;13.38;54.93;97004.11;1644447;85;27079;-76
2022/05/22 01:42:33;;;;;;;8.13;1.95;;;;;;;13.37;54.88;97006.52;1639150;87;25832;-76
2022/05/22 01:45:00;;;;;;;2.85;1.92;;;;;;;13.38;54.88;97012.24;1639292;87;25820;-76
2022/05/22 01:47:26;;;;;;;3.33;1.95;;;;;;;13.40;54.84;97000.63;1639137;87;25787;-75
2022/05/22 01:49:54;;;;;;;5.10;2.20;;;;;;;13.40;54.92;97010.12;1639171;87;27547;-77
2022/05/22 01:52:21;;;;;;;4.60;2.22;;;;;;;13.40;54.92;97000.10;1639051;87;25751;-76
2022/05/22 01:54:47;;;;;;;7.00;2.02;;;;;;;13.39;54.98;97002.52;1639246;87;25760;-76
2022/05/22 01:57:14;;;;;;;3.92;2.00;;;;;;;13.39;55.12;96999.81;1639052;87;26485;-77
2022/05/22 01:59:40;;;;;;;3.27;2.15;;;;;;;13.37;55.17;97003.81;1676093;83;25817;-76
2022/05/22 02:02:07;;;;;;;3.85;2.20;;;;;;;13.27;55.11;97002.54;1704675;84;27466;-76
2022/05/22 02:04:34;;;;;;;3.72;2.00;;;;;;;13.24;55.38;97000.83;1704723;83;25544;-77
2022/05/22 02:09:46;;;;;;;4.95;2.02;;;;;;;13.22;55.35;96993.46;1704759;84;26413;-76
2022/05/22 02:12:12;;;;;;;4.90;2.10;;;;;;;13.18;55.53;96990.39;1674933;85;25840;-76
2022/05/22 02:14:39;;;;;;;3.40;2.10;;;;;;;13.19;55.57;96985.80;1704872;84;27549;-76
2022/05/22 02:17:06;;;;;;;4.83;2.20;;;;;;;13.21;55.50;96992.63;1674913;85;25220;-77
2022/05/22 02:19:33;;;;;;;9.83;2.80;;;;;;;13.23;55.55;96992.41;1704827;84;25774;-77
2022/05/22 02:21:59;;;;;;;7.83;2.33;;;;;;;13.23;55.52;96989.16;1674924;85;25804;-76
2022/05/22 02:24:26;;;;;;;3.47;1.85;;;;;;;13.26;55.59;96995.47;1704751;84;25710;-75
2022/05/22 02:26:53;;;;;;;3.30;2.27;;;;;;;13.27;55.66;96996.30;1674578;85;28332;-76
2022/05/22 02:29:19;;;;;;;5.17;2.50;;;;;;;13.20;55.61;96989.63;1704726;84;25712;-77
2022/05/22 02:31:46;;;;;;;5.33;1.82;;;;;;;13.17;55.73;96994.69;1674869;85;25711;-76
2022/05/22 02:34:12;;;;;;;7.58;2.30;;;;;;;13.14;55.86;96985.67;1704760;84;25825;-77
2022/05/22 02:36:39;;;;;;;6.17;2.25;;;;;;;13.10;56.01;96989.91;1664512;85;25680;-76
2022/05/22 02:39:05;;;;;;;3.67;2.20;;;;;;;13.04;56.23;96983.53;1674960;85;27585;-76
2022/05/22 02:41:32;;;;;;;5.05;2.45;;;;;;;12.97;56.30;96984.20;1692381;84;25684;-76
2022/05/22 02:43:59;;;;;;;5.60;2.20;;;;;;;12.97;56.34;96974.72;1674936;84;25749;-76
2022/05/22 02:46:25;;;;;;;4.58;2.17;;;;;;;12.94;56.41;96977.89;1692422;84;25658;-76
2022/05/22 02:48:52;;;;;;;5.08;2.20;;;;;;;12.87;56.54;96979.39;1675004;85;25764;-76
2022/05/22 02:51:22;;;;;;;3.83;2.33;;;;;;;12.85;56.80;96980.67;1692310;84;27468;-76
2022/05/22 02:53:49;;;;;;;10.28;2.40;;;;;;;12.80;56.88;96981.93;1692220;84;25782;-76
2022/05/22 02:56:24;;;;;;;6.12;2.30;;;;;;;12.75;57.01;96987.22;1692340;84;25761;-76
2022/05/22 02:58:50;;;;;;;7.08;2.35;;;;;;;12.71;57.17;96983.31;1674830;85;25683;-76
2022/05/22 03:01:17;;;;;;;4.20;2.30;;;;;;;12.75;57.28;96992.63;1692562;84;25835;-76
2022/05/22 03:03:43;;;;;;;4.70;2.17;;;;;;;12.72;57.39;96997.16;1674926;85;28105;-76
2022/05/22 03:08:55;;;;;;;9.90;2.30;;;;;;;12.72;57.47;96994.45;1692151;84;25678;-76
2022/05/22 03:11:22;;;;;;;6.92;2.87;;;;;;;12.76;57.54;97003.77;1692073;84;26530;-76
2022/05/22 03:13:49;;;;;;;4.80;3.00;;;;;;;12.79;57.54;96997.36;1674790;85;25760;-77
2022/05/22 03:16:16;;;;;;;5.42;2.52;;;;;;;12.80;57.67;97000.89;1692622;84;27431;-76
2022/05/22 03:18:43;;;;;;;4.55;2.62;;;;;;;12.78;57.82;96998.41;1692349;84;25772;-76
2022/05/22 03:21:09;;;;;;;4.25;2.40;;;;;;;12.75;57.90;96987.22;1692538;84;25747;-76
2022/05/22 03:23:37;;;;;;;7.53;2.83;;;;;;;12.75;58.06;96989.92;1692554;84;25730;-76
2022/05/22 03:26:04;;;;;;;5.08;2.90;;;;;;;12.71;58.14;96991.44;1692395;84;25578;-76
2022/05/22 03:28:30;;;;;;;8.50;2.60;;;;;;;12.63;58.37;96986.68;1675051;85;28041;-76
2022/05/22 03:30:57;;;;;;;6.35;2.85;;;;;;;12.59;58.64;96985.49;1692141;84;25749;-76
2022/05/22 03:33:23;;;;;;;6.83;3.00;;;;;;;12.55;58.89;96987.56;1675013;85;25702;-76
2022/05/22 03:35:50;;;;;;;4.33;2.70;;;;;;;12.48;58.85;96978.18;1692200;84;25684;-77
2022/05/22 03:38:17;;;;;;;5.75;3.30;;;;;;;12.49;59.01;96977.13;1692632;84;25676;-76
2022/05/22 03:40:47;;;;;;;7.28;3.37;;;;;;;12.50;59.13;96978.78;1692472;84;28029;-75
2022/05/22 03:43:15;;;;;;;8.10;3.27;;;;;;;12.52;59.23;96982.61;1692356;84;25217;-76
2022/05/22 03:45:42;;;;;;;6.67;3.35;;;;;;;12.50;59.50;96981.48;1692485;84;25800;-75
2022/05/22 03:48:10;;;;;;;9.25;4.35;;;;;;;12.47;59.51;96979.23;1674933;85;25842;-76
2022/05/22 03:50:38;;;;;;;7.33;3.60;;;;;;;12.46;59.60;96978.94;1692529;84;25688;-75
2022/05/22 03:53:05;;;;;;;5.55;3.40;;;;;;;12.43;59.59;96980.78;1692578;84;27390;-76
2022/05/22 03:55:32;;;;;;;10.85;3.40;;;;;;;12.49;59.69;96983.89;1690714;84;25703;-75
2022/05/22 03:57:59;;;;;;;6.20;3.30;;;;;;;12.50;59.86;96977.95;1690799;84;26004;-76
2022/05/22 04:00:26;;;;;;;6.92;3.40;;;;;;;12.50;60.12;96974.72;1690705;84;26309;-75
2022/05/22 04:02:53;;;;;;;7.08;3.47;;;;;;;12.51;60.12;96978.25;1690636;84;25853;-76
2022/05/22 04:05:20;;;;;;;7.25;3.55;;;;;;;12.54;60.24;96975.91;1690765;84;27453;-75
2022/05/22 04:07:49;;;;;;;8.58;3.87;;;;;;;12.58;60.26;96971.66;1690599;84;25688;-75
2022/05/22 04:10:17;;;;;;;5.70;3.90;;;;;;;12.58;60.35;96979.78;1690766;84;25672;-76
2022/05/22 04:12:44;;;;;;;5.78;3.30;;;;;;;12.60;60.21;96979.55;1690605;84;25935;-76
2022/05/22 04:15:18;;;;;;;7.87;3.50;;;;;;;12.64;60.23;96975.33;1690652;84;26392;-76
2022/05/22 04:17:45;;;;;;;4.87;3.40;;;;;;;12.65;60.26;96974.80;1637710;87;27606;-77
2022/05/22 04:20:15;;;;;;;5.22;3.20;;;;;;;12.68;60.08;96975.69;1650936;86;25285;-76
2022/05/22 04:25:27;;;;;;;8.63;3.52;;;;;;;12.61;60.17;96967.13;1650782;86;26525;-75
2022/05/22 04:27:53;;;;;;;10.35;3.47;;;;;;;12.62;60.20;96970.14;1650950;86;25915;-76
2022/05/22 04:30:21;;;;;;;11.55;3.05;;;;;;;12.63;60.19;96967.73;1651055;86;28038;-75
2022/05/22 04:32:49;;;;;;;8.35;3.30;;;;;;;12.68;59.89;96968.92;1650827;86;25811;-76
2022/05/22 04:35:18;;;;;;;6.87;2.90;;;;;;;12.73;59.65;96967.66;1650905;86;25751;-75
2022/05/22 04:37:45;;;;;;;3.77;2.52;;;;;;;12.76;59.77;96961.78;1669032;85;25731;-76
2022/05/22 04:40:13;;;;;;;4.75;3.08;;;;;;;12.75;59.98;96966.91;1669324;85;25876;-76
2022/05/22 04:42:41;;;;;;;9.38;3.02;;;;;;;12.78;59.87;96965.91;1669223;85;28325;-75
2022/05/22 04:45:10;;;;;;;6.87;2.80;;;;;;;12.84;59.61;96968.19;1669105;85;25842;-76
2022/05/22 04:47:40;;;;;;;6.62;2.22;;;;;;;12.86;59.72;96964.19;1669200;85;26669;-77
2022/05/22 04:50:09;;;;;;;6.70;2.50;;;;;;;12.88;59.33;96966.14;1634410;87;26474;-76
2022/05/22 04:52:35;;;;;;;6.25;2.60;;;;;;;12.88;59.25;96963.95;1634685;87;25603;-75
2022/05/22 04:55:02;;;;;;;8.70;3.10;;;;;;;12.93;59.26;96962.70;1634513;87;27462;-75
2022/05/22 04:57:29;;;;;;;6.85;2.67;;;;;;;13.02;59.25;96969.43;1634289;87;25771;-75
2022/05/22 04:59:56;;;;;;;9.30;3.15;;;;;;;13.08;59.21;96969.82;1634446;87;25717;-74
2022/05/22 05:02:23;;;;;;;3.87;2.08;;;;;;;13.13;59.05;96975.36;1634144;87;25794;-75
2022/05/22 05:04:55;;;;;;;6.33;2.40;;;;;;;13.18;59.11;96972.77;1634192;87;25802;-75
2022/05/22 05:07:22;;;;;;;3.45;2.00;;;;;;;13.21;58.93;96973.66;1634669;87;27400;-78
2022/05/22 05:09:49;;;;;;;5.25;2.12;;;;;;;13.25;58.93;96969.42;1634404;87;25769;-75
2022/05/22 05:12:17;;;;;;;3.67;1.62;;;;;;;13.25;58.51;96968.07;1634454;87;25858;-75
2022/05/22 05:14:46;;;;;;;3.25;1.45;;;;;;;13.24;58.11;96966.42;1670348;84;25770;-76
2022/05/22 05:17:16;;;;;;;6.58;1.92;;;;;;;13.23;58.04;96966.13;1696519;84;26835;-76
2022/05/22 05:19:43;;;;;;;4.80;1.90;;;;;;;13.26;57.85;96970.25;1696544;84;26809;-76
2022/05/22 05:22:09;;;;;;;5.17;1.90;;;;;;;13.26;57.87;96962.94;1696410;84;25526;-75
2022/05/22 05:24:36;;;;;;;5.08;1.85;;;;;;;13.29;57.82;96967.86;1696741;84;25360;-75
2022/05/22 05:27:04;;;;;;;6.55;1.60;;;;;;;13.30;57.38;96959.20;1696552;84;25826;-76
2022/05/22 05:29:30;;;;;;;4.40;1.50;;;;;;;13.33;57.14;96960.09;1696625;84;25754;-76
2022/05/22 05:31:57;;;;;;;6.08;1.75;;;;;;;13.36;56.80;96962.86;1696261;84;28333;-78
2022/05/22 05:34:23;;;;;;;5.12;1.60;;;;;;;13.42;56.73;96956.45;1696479;84;25702;-75
2022/05/22 05:36:50;;;;;;;3.77;1.40;;;;;;;13.48;56.63;96959.05;1694003;84;25801;-76
2022/05/22 05:39:17;;;;;;;3.85;1.35;;;;;;;13.58;56.28;96963.84;1692435;84;26290;-75
2022/05/22 05:41:44;;;;;;;3.25;1.22;;;;;;;13.62;56.01;96952.82;1692455;84;25775;-78
2022/05/22 05:44:11;;;;;;;4.90;1.50;;;;;;;13.67;55.83;96957.80;1692226;84;27417;-76
2022/05/22 05:46:39;;;;;;;8.38;1.32;;;;;;;13.69;56.13;96956.20;1692324;84;25587;-77
2022/05/22 05:49:07;;;;;;;5.80;1.30;;;;;;;13.75;55.86;96955.25;1692304;84;25763;-80
2022/05/22 05:51:36;;;;;;;6.05;1.30;;;;;;;13.79;55.82;96959.10;1692489;84;25843;-77
2022/05/22 05:54:03;;;;;;;5.75;1.10;;;;;;;13.87;55.49;96952.48;1720522;82;25709;-76
2022/05/22 05:56:29;;;;;;;3.22;1.47;;;;;;;13.91;55.12;96961.23;1694827;84;27285;-76
2022/05/22 05:58:56;;;;;;;5.65;1.52;;;;;;;13.99;54.91;96962.22;1694883;84;25473;-77
2022/05/22 06:01:24;;;;;;;3.77;1.22;;;;;;;13.97;54.73;96957.56;1694848;84;25730;-77
2022/05/22 06:03:54;;;;;;;4.08;1.32;;;;;;;13.98;54.50;96963.28;1694843;84;26648;-76
2022/05/22 06:06:21;;;;;;;2.80;1.55;;;;;;;13.89;54.37;96953.03;1694926;84;25701;-77
2022/05/22 06:08:48;;;;;;;6.80;2.05;;;;;;;13.88;54.35;96952.25;1694999;84;27552;-76
2022/05/22 06:11:15;;;;;;;4.92;1.35;;;;;;;13.94;54.25;96949.90;1694748;84;25783;-75
2022/05/22 06:13:41;;;;;;;5.85;1.62;;;;;;;14.01;53.97;96957.88;1694674;84;25691;-77
2022/05/22 06:16:10;;;;;;;1.98;1.27;;;;;;;14.08;53.93;96952.31;1694618;84;25767;-77
2022/05/22 06:18:36;;;;;;;4.67;1.80;;;;;;;14.10;53.83;96951.54;1695050;84;25673;-76
2022/05/22 06:21:12;;;;;;;3.12;1.35;;;;;;;14.15;53.67;96947.53;1694876;84;28100;-76
2022/05/22 06:23:39;;;;;;;3.62;1.32;;;;;;;14.20;53.70;96940.85;1694466;84;25834;-76
2022/05/22 06:26:08;;;;;;;6.20;1.67;;;;;;;14.23;53.36;96941.73;1694945;84;25748;-76
2022/05/22 06:28:35;;;;;;;3.80;1.60;;;;;;;14.28;53.20;96947.23;1694881;84;25842;-76
2022/05/22 06:33:32;;;;;;;5.67;2.20;;;;;;;14.25;53.22;96945.02;1654439;86;27579;-76
2022/05/22 06:35:59;;;;;;;5.75;1.65;;;;;;;14.29;53.15;96944.80;1651115;86;25795;-76
2022/05/22 06:41:12;;;;;;;3.25;1.67;;;;;;;14.46;53.33;96947.03;1636959;87;26685;-76
2022/05/22 06:43:39;;;;;;;3.75;1.90;;;;;;;14.54;53.03;96941.18;1665500;86;25708;-76
2022/05/22 06:46:06;;;;;;;4.42;1.92;;;;;;;14.60;53.21;96937.48;1637104;87;27741;-76
2022/05/22 06:48:33;;;;;;;3.05;1.75;;;;;;;14.71;52.99;96929.78;1665660;86;25716;-76
2022/05/22 06:50:59;;;;;;;4.83;2.83;;;;;;;14.84;52.78;96934.04;1637435;87;25833;-75
2022/05/22 06:53:26;;;;;;;4.33;1.70;;;;;;;14.92;52.61;96927.34;1665564;86;26708;-74
2022/05/22 06:55:52;;;;;;;2.47;1.60;;;;;;;14.97;52.43;96935.58;1637354;87;25780;-76
2022/05/22 06:58:19;;;;;;;4.62;1.95;;;;;;;15.05;52.22;96933.78;1665635;86;27650;-76
2022/05/22 07:00:52;;;;;;;5.70;1.72;;;;;;;15.03;52.11;96929.13;1637335;87;25757;-76
2022/05/22 07:03:19;;;;;;;5.08;2.17;;;;;;;15.11;52.15;96931.41;1608611;89;25339;-74
2022/05/22 07:05:46;;;;;;;4.97;2.47;;;;;;;15.12;51.76;96936.59;1584410;90;26607;-76
2022/05/22 07:08:13;;;;;;;5.58;2.08;;;;;;;15.12;51.59;96928.97;1610798;89;25802;-76
2022/05/22 07:13:24;;;;;;;5.37;1.55;;;;;;;15.08;51.15;96931.93;1610653;89;25975;-76
2022/05/22 07:16:04;;;;;;;9.58;2.35;;;;;;;15.09;51.38;96930.29;1584715;90;25806;-76
2022/05/22 07:18:31;;;;;;;7.45;1.98;;;;;;;15.16;51.14;96924.69;1610920;89;26506;-76
2022/05/22 07:20:57;;;;;;;5.05;1.77;;;;;;;15.27;51.62;96925.10;1584058;90;25914;-78
2022/05/22 07:23:24;;;;;;;4.53;2.33;;;;;;;15.41;51.52;96920.11;1610894;89;27383;-78
2022/05/22 07:25:53;;;;;;;5.03;1.70;;;;;;;15.55;51.44;96920.58;1584422;90;25915;-78
2022/05/22 07:28:20;;;;;;;5.05;1.98;;;;;;;15.59;51.24;96918.97;1611006;89;25826;-77
2022/05/22 07:30:46;;;;;;;4.30;1.82;;;;;;;15.75;51.68;96918.89;1595322;89;25859;-76
2022/05/22 07:33:14;;;;;;;4.87;1.95;;;;;;;15.87;51.08;96913.30;1632814;87;26006;-78
2022/05/22 07:35:40;;;;;;;3.27;1.80;;;;;;;15.84;50.73;96917.89;1644066;87;27378;-77
2022/05/22 07:38:07;;;;;;;2.10;1.40;;;;;;;15.78;50.61;96930.64;1673202;84;25822;-75
2022/05/22 07:40:33;;;;;;;4.37;1.90;;;;;;;15.69;50.23;96928.64;1680914;84;25850;-76
2022/05/22 07:43:00;;;;;;;4.45;1.77;;;;;;;15.64;50.09;96927.20;1677799;84;26408;-77
2022/05/22 07:45:26;;;;;;;5.87;1.75;;;;;;;15.63;50.20;96925.55;1675013;84;26502;-76
2022/05/22 07:47:53;;;;;;;4.62;1.65;;;;;;;15.85;50.18;96922.26;1677731;84;27348;-77
2022/05/22 07:52:50;;;;;;;5.80;2.08;;;;;;;16.44;49.90;96922.25;1618902;88;25736;-76
2022/05/22 07:55:20;;;;;;;4.53;2.02;;;;;;;16.81;50.02;96920.38;1634665;87;26239;-78
2022/05/22 07:57:49;;;;;;;5.15;2.15;;;;;;;16.82;48.94;96917.94;1634535;86;25415;-76
2022/05/22 08:00:19;;;;;;;4.03;1.50;;;;;;;16.80;48.89;96916.55;1648513;85;27436;-77
2022/05/22 08:02:47;;;;;;;8.08;1.82;;;;;;;17.09;48.74;96905.56;1650380;85;25870;-77
2022/05/22 08:05:18;;;;;;;5.80;1.60;;;;;;;17.08;48.25;96923.55;1683962;84;25863;-76
2022/05/22 08:07:45;;;;;;;5.20;1.95;;;;;;;16.97;47.80;96915.86;1679709;84;26270;-76
2022/05/22 08:10:14;;;;;;;4.40;1.92;;;;;;;16.64;47.50;96936.63;1674062;84;25355;-77
2022/05/22 08:12:48;;;;;;;5.67;1.92;;;;;;;16.42;47.70;96934.77;1679747;84;28348;-77
2022/05/22 08:15:18;;;;;;;3.90;1.60;;;;;;;16.68;48.32;96926.28;1676922;84;25823;-76
2022/05/22 08:17:46;;;;;;;4.70;1.77;;;;;;;16.92;48.20;96923.45;1677968;84;25831;-76
2022/05/22 08:20:19;;;;;;;4.85;1.98;;;;;;;17.22;47.99;96929.64;1675676;84;25786;-76
2022/05/22 08:22:47;;;;;;;6.90;1.75;;;;;;;17.19;47.66;96923.88;1683157;84;25743;-76
2022/05/22 08:25:18;;;;;;;6.28;1.80;;;;;;;16.96;47.22;96931.11;1680648;84;27375;-76
2022/05/22 08:27:45;;;;;;;7.95;1.82;;;;;;;16.53;47.15;96924.80;1684486;84;25774;-76
2022/05/22 08:30:15;;;;;;;5.08;1.75;;;;;;;16.13;47.78;96926.09;1678108;84;25328;-75
2022/05/22 08:32:44;;;;;;;4.47;2.42;;;;;;;15.91;48.16;96936.75;1681180;84;25845;-77
2022/05/22 08:35:16;;;;;;;4.58;1.65;;;;;;;15.74;48.30;96935.47;1677847;84;25869;-74
2022/05/22 08:37:44;;;;;;;5.35;2.15;;;;;;;15.56;48.54;96938.55;1668597;84;27385;-76
2022/05/22 08:40:15;;;;;;;3.37;2.10;;;;;;;15.55;48.78;96931.45;1658301;86;25829;-76
2022/05/22 08:42:53;;;;;;;3.80;2.05;;;;;;;15.58;48.84;96932.31;1658658;86;25838;-78
2022/05/22 08:45:24;;;;;;;6.83;2.10;;;;;;;15.62;48.82;96926.63;1654300;85;25791;-76
2022/05/22 08:48:14;;;;;;;3.60;1.70;;;;;;;15.58;49.09;96920.87;1655537;85;25559;-76
2022/05/22 08:50:45;;;;;;;4.78;2.10;;;;;;;15.82;49.07;96929.56;1658199;85;27485;-74
2022/05/22 08:53:26;;;;;;;6.05;2.25;;;;;;;16.02;48.83;96920.80;1626866;87;25775;-75
2022/05/22 08:58:56;;;;;;;10.40;2.08;;;;;;;15.91;48.39;96919.89;1686570;84;25854;-76
2022/05/22 09:02:00;;;;;;;3.90;2.40;;;;;;;16.00;49.06;96915.61;1721952;82;26368;-75
2022/05/22 09:04:35;;;;;;;2.87;1.60;;;;;;;16.53;48.86;96913.91;1727668;82;27262;-77
2022/05/22 09:07:18;;;;;;;5.60;2.10;;;;;;;16.97;48.47;96913.67;1726619;81;25720;-76
2022/05/22 09:09:59;;;;;;;6.35;2.27;;;;;;;17.04;48.23;96903.34;1727322;81;25702;-76
2022/05/22 09:12:46;;;;;;;5.87;1.98;;;;;;;17.12;48.32;96912.41;1727383;82;25666;-75
2022/05/22 09:15:42;;;;;;;4.72;1.57;;;;;;;17.45;48.26;96895.63;1722983;82;25929;-76
2022/05/22 09:18:47;;;;;;;4.33;1.85;;;;;;;17.54;48.05;96902.20;1728877;81;27371;-76
2022/05/22 09:21:34;;;;;;;4.83;2.15;;;;;;;17.38;47.86;96899.16;1632719;86;25910;-77
2022/05/22 09:24:40;;;;;;;6.12;1.90;;;;;;;17.17;47.80;96905.05;1629384;86;25839;-75
2022/05/22 09:27:20;;;;;;;6.10;1.60;;;;;;;16.95;47.47;96915.30;1614558;88;26468;-78
2022/05/22 09:29:54;;;;;;;5.55;2.27;;;;;;;16.71;47.25;96916.23;1600140;89;26996;-75
2022/05/22 09:32:44;;;;;;;4.75;1.85;;;;;;;16.39;47.60;96912.16;1593003;89;27600;-77
2022/05/22 09:35:50;;;;;;;4.53;2.08;;;;;;;16.39;48.24;96911.34;1596205;89;26475;-75
2022/05/22 09:38:41;;;;;;;7.25;1.70;;;;;;;17.10;48.28;96911.84;1618240;88;25882;-76
2022/05/22 09:41:40;;;;;;;6.75;2.15;;;;;;;17.86;47.79;96897.98;1617167;88;25937;-79
2022/05/22 09:44:34;;;;;;;5.17;1.80;;;;;;;18.39;47.16;96895.83;1619495;88;26588;-79
2022/05/22 09:47:38;;;;;;;5.80;1.90;;;;;;;18.44;46.26;96888.19;1616365;88;28081;-78
2022/05/22 09:50:31;;;;;;;6.40;2.12;;;;;;;18.26;45.66;96894.46;1521155;93;25900;-78
2022/05/22 09:53:07;;;;;;;5.35;1.52;;;;;;;17.98;45.79;96893.63;1522780;92;25890;-76
2022/05/22 09:55:52;;;;;;;5.10;1.87;;;;;;;17.70;45.95;96896.30;1524047;93;26669;-76
2022/05/22 09:58:39;;;;;;;7.15;1.80;;;;;;;17.49;46.13;96888.56;1520015;93;25857;-79
2022/05/22 10:01:11;;;;;;;4.95;1.67;;;;;;;17.42;46.22;96885.25;1520504;93;27519;-79
2022/05/22 10:04:24;;;;;;;3.65;1.50;;;;;;;17.55;46.67;96882.56;1543033;91;25722;-79
2022/05/22 10:07:19;;;;;;;5.47;1.72;;;;;;;18.09;46.07;96873.98;1544488;92;26539;-76
2022/05/22 10:10:06;;;;;;;5.28;1.87;;;;;;;18.56;45.46;96864.13;1542741;92;25770;-77
2022/05/22 10:13:22;;;;;;;3.50;1.50;;;;;;;19.25;45.41;96862.06;1541930;92;25870;-79
2022/05/22 10:16:09;;;;;;;3.80;1.27;;;;;;;19.78;45.16;96853.08;1532736;93;27489;-80
2022/05/22 10:18:56;;;;;;;3.75;1.67;;;;;;;19.88;43.24;96848.63;1556827;91;25938;-79
2022/05/22 10:21:43;;;;;;;5.22;1.40;;;;;;;19.62;43.34;96852.89;1561252;91;25922;-77
2022/05/22 10:24:52;;;;;;;6.33;1.40;;;;;;;19.45;42.88;96857.86;1531450;93;25790;-80
2022/05/22 10:27:27;;;;;;;4.62;1.35;;;;;;;19.13;42.05;96858.28;1590938;89;25842;-75
2022/05/22 10:29:59;;;;;;;4.40;1.40;;;;;;;18.70;42.40;96863.33;1582383;90;27402;-78
2022/05/22 10:32:51;;;;;;;3.55;1.30;;;;;;;18.29;42.34;96871.25;1598949;89;33654;-77
2022/05/22 10:35:32;;;;;;;3.30;1.57;;;;;;;18.03;42.54;96866.86;1585377;90;25847;-77
2022/05/22 10:38:21;;;;;;;3.25;1.45;;;;;;;17.60;43.06;96882.05;1615320;88;25753;-79
2022/05/22 10:43:42;;;;;;;5.33;1.75;;;;;;;17.43;43.91;96880.07;1621959;88;27466;-76
2022/05/22 10:46:08;;;;;;;8.10;2.47;;;;;;;17.72;44.29;96874.19;1622180;88;25732;-76
2022/05/22 10:48:47;;;;;;;3.47;1.40;;;;;;;17.91;44.27;96881.59;1622043;88;25781;-79
2022/05/22 10:51:27;;;;;;;6.15;1.90;;;;;;;18.26;44.31;96884.90;1620447;88;26452;-78
2022/05/22 10:53:57;;;;;;;6.30;1.65;;;;;;;18.69;43.56;96884.10;1620787;88;25955;-76
2022/05/22 10:56:32;;;;;;;6.37;1.52;;;;;;;18.98;42.94;96886.48;1622155;88;27444;-77
2022/05/22 10:59:10;;;;;;;4.72;1.55;;;;;;;19.11;42.81;96880.98;1621998;88;25837;-78
2022/05/22 11:01:40;;;;;;;2.85;1.20;;;;;;;19.09;42.15;96885.91;1619033;88;25799;-76
2022/05/22 11:04:12;;;;;;;5.55;1.62;;;;;;;19.03;41.82;96873.36;1622030;88;25726;-80
2022/05/22 11:06:52;;;;;;;4.05;1.47;;;;;;;18.95;41.68;96880.23;1605570;89;25802;-78
2022/05/22 11:09:24;;;;;;;3.72;1.50;;;;;;;18.67;41.80;96871.25;1516648;93;27488;-77
2022/05/22 11:11:51;;;;;;;3.90;1.37;;;;;;;18.44;42.21;96876.72;1529141;93;25922;-76
2022/05/22 11:14:22;;;;;;;7.40;1.45;;;;;;;18.29;42.38;96882.99;1550719;91;26483;-77
2022/05/22 11:16:49;;;;;;;3.42;1.47;;;;;;;18.06;42.25;96886.26;1552171;91;25896;-78
2022/05/22 11:19:26;;;;;;;7.80;1.65;;;;;;;17.96;42.48;96880.24;1552858;91;25788;-77
2022/05/22 11:22:14;;;;;;;3.77;1.60;;;;;;;18.14;43.09;96864.41;1550166;91;27619;-76
2022/05/22 11:25:14;;;;;;;3.35;1.57;;;;;;;18.60;43.62;96876.16;1552293;91;25863;-79
2022/05/22 11:28:33;;;;;;;5.72;1.60;;;;;;;18.88;42.24;96861.91;1610315;88;25830;-79
2022/05/22 11:31:30;;;;;;;2.83;1.37;;;;;;;18.83;41.89;96857.84;1626087;86;25700;-75
2022/05/22 11:34:25;;;;;;;4.67;1.40;;;;;;;18.79;41.73;96860.84;1583170;89;25753;-79
2022/05/22 11:37:30;;;;;;;4.72;1.65;;;;;;;18.70;41.54;96858.41;1583414;89;27391;-76
2022/05/22 11:40:33;;;;;;;1.85;1.00;;;;;;;18.30;42.01;96862.78;1580629;89;25806;-80
2022/05/22 11:43:32;;;;;;;2.98;1.10;;;;;;;18.22;41.94;96861.15;1581206;89;25845;-78
2022/05/22 11:46:10;;;;;;;4.50;1.35;;;;;;;18.33;41.88;96859.51;1586596;89;26409;-77
2022/05/22 11:49:22;;;;;;;3.92;1.30;;;;;;;18.50;41.90;96852.92;1582203;89;25881;-80
2022/05/22 11:52:53;;;;;;;5.03;1.57;;;;;;;18.47;41.84;96845.30;1595297;89;27440;-76
2022/05/22 11:54:59;;;;;;;7.28;1.52;;;;;;;18.31;41.70;96843.93;1598126;88;25814;-80
2022/05/22 11:57:51;;;;;;;5.33;1.40;;;;;;;18.26;41.71;96851.30;1539442;91;25826;-77
2022/05/22 12:00:26;;;;;;;2.77;1.20;;;;;;;18.30;41.90;96846.94;1541657;91;26400;-78
2022/05/22 12:03:12;;;;;;;7.55;1.50;;;;;;;18.44;42.04;96854.85;1531621;92;25881;-77
2022/05/22 12:05:47;;;;;;;2.75;1.37;;;;;;;18.42;41.84;96864.41;1533595;92;28045;-78
2022/05/22 12:08:31;;;;;;;4.08;1.50;;;;;;;18.31;41.80;96860.33;1530179;93;25746;-76
2022/05/22 12:11:15;;;;;;;3.47;1.45;;;;;;;18.23;42.42;96857.33;1564407;90;25863;-77
2022/05/22 12:14:16;;;;;;;4.45;1.40;;;;;;;18.12;43.06;96860.58;1584475;90;25870;-78
2022/05/22 12:17:03;;;;;;;2.67;1.45;;;;;;;17.99;43.36;96863.88;1586341;90;25816;-78
2022/05/22 12:19:38;;;;;;;4.45;1.40;;;;;;;17.75;43.34;96868.20;1541570;93;27414;-80
2022/05/22 12:22:21;;;;;;;3.10;1.40;;;;;;;17.36;43.65;96874.05;1537765;91;25751;-79
2022/05/22 12:25:00;;;;;;;4.55;1.87;;;;;;;17.26;44.25;96875.38;1540145;93;25824;-79
2022/05/22 12:27:33;;;;;;;5.75;1.75;;;;;;;17.32;44.38;96875.66;1539938;93;25812;-76